• Join FlightAware (Why Join?)
  • Login
  • US Flag 
06:28PM EDT


 

Airport Tracker/Info


-or-


 

Live Flight TrackerFlight Track Log ✈ EJM826 ✈ 04-Dec-2013 ✈ KSAT - KIND

Flight Track Log - Related Links

Times and Time Zones

All times are in EST time to prevent confusion due to time zone crossing. See the EJM826 flight status page for this flight to view local times or setup timezone preferences in your user account.

Time Position Orientation Groundspeed Altitude Reporting Facility
EST Latitude Longitude Course Direction KTS MPH feet Rate Location/Type
09:32AM 29.5244 -98.4614 132° Southeast 170 196 1,400  Level Houston Center
09:33AM 29.5056 -98.4372 132° Southeast 182 209 2,200 2,040 Climbing Houston Center
09:33AM 29.4917 -98.4039 116° Southeast 222 255 3,500 1,620 Climbing Houston Center
09:34AM 29.5300 -98.3597 45° Northeast 302 348 4,400 1,440 Climbing Houston Center
09:34AM 29.5494 -98.3572 North 290 334 5,000 2,940 Climbing Houston Center
09:36AM 29.6347 -98.3653 355° North 288 331 8,100 2,640 Climbing Houston Center
09:37AM 29.7147 -98.3686 358° North 288 331 10,500 2,160 Climbing Houston Center
09:38AM 29.8000 -98.3731 357° North 305 351 12,600 1,980 Climbing Houston Center
09:39AM 29.8942 -98.3794 357° North 313 360 14,600 1,740 Climbing Houston Center
09:40AM 29.9864 -98.3850 357° North 329 379 16,300 1,560 Climbing Houston Center
09:41AM 30.0894 -98.3906 357° North 343 395 17,900 1,800 Climbing Houston Center
09:42AM 30.1875 -98.3764 North 355 409 20,000 1,680 Climbing Houston Center
09:43AM 30.2858 -98.3653 North 355 409 21,400 1,260 Climbing Houston Center
09:44AM 30.3867 -98.3514 North 366 421 22,700 1,260 Climbing Houston Center
09:45AM 30.4922 -98.3361 North 374 430 24,100 1,200 Climbing Houston Center
09:46AM 30.6006 -98.3197 North 383 441 25,300 1,260 Climbing Houston Center
09:47AM 30.7083 -98.2875 14° North 408 470 26,800 1,200 Climbing Houston Center
09:48AM 30.8153 -98.2375 22° Northeast 410 472 27,800 1,080 Climbing Houston Center
09:49AM 30.9428 -98.1736 23° Northeast 420 483 29,100 1,200 Climbing Houston Center
09:50AM 31.0536 -98.1194 23° Northeast 424 488 30,400 1,140 Climbing Houston Center
09:51AM 31.1656 -98.0631 23° Northeast 428 493 31,500 1,020 Climbing Houston Center
09:52AM 31.2783 -98.0058 23° Northeast 434 499 32,600 1,020 Climbing Houston Center
09:53AM 31.3936 -97.9483 23° Northeast 440 506 33,700 1,080 Climbing Houston Center
09:54AM 31.5097 -97.8894 23° Northeast 446 513 34,900 1,140 Climbing Houston Center
09:55AM 31.6431 -97.8256 22° Northeast 446 513 36,200 1,140 Climbing Fort Worth Center
09:56AM 31.7589 -97.7650 24° Northeast 450 518 37,400 1,020 Climbing Fort Worth Center
09:57AM 31.8739 -97.7047 24° Northeast 447 514 38,400 960 Climbing Fort Worth Center
09:58AM 32.0019 -97.6386 24° Northeast 450 518 39,400 960 Climbing Fort Worth Center
09:59AM 32.1172 -97.5811 23° Northeast 449 517 40,500 720 Climbing Fort Worth Center
10:00AM 32.2297 -97.5217 24° Northeast 443 510 41,000 240 Climbing Fort Worth Center
10:01AM 32.3475 -97.4614 23° Northeast 458 527 41,000  Level Fort Worth Center
10:02AM 32.4681 -97.3969 24° Northeast 469 540 41,000  Level Fort Worth Center
10:03AM 32.5767 -97.2853 41° Northeast 523 602 41,000  Level Fort Worth Center
10:05AM 32.6833 -97.1189 53° Northeast 533 613 41,000  Level Fort Worth Center
10:06AM 32.7725 -96.9775 53° Northeast 546 628 41,000  Level Fort Worth Center
10:07AM 32.8611 -96.8369 53° Northeast 541 623 41,000  Level Fort Worth Center
10:08AM 32.9506 -96.6975 53° Northeast 535 616 41,000  Level Fort Worth Center
10:09AM 33.0547 -96.5314 53° Northeast 527 606 41,000  Level Fort Worth Center
10:10AM 33.1442 -96.3917 53° Northeast 528 608 41,000  Level Fort Worth Center
10:11AM 33.2314 -96.2522 53° Northeast 527 606 41,000  Level Fort Worth Center
10:12AM 33.3164 -96.1111 54° Northeast 525 604 41,000  Level Fort Worth Center
10:13AM 33.4028 -95.9697 54° Northeast 526 605 41,000  Level Fort Worth Center
10:14AM 33.5092 -95.8017 53° Northeast 529 609 41,000  Level Fort Worth Center
10:15AM 33.5947 -95.6592 54° Northeast 527 606 41,000  Level Fort Worth Center
10:16AM 33.6744 -95.5289 54° Northeast 532 612 41,000  Level Fort Worth Center
10:17AM 33.7633 -95.3858 53° Northeast 533 613 41,000  Level Fort Worth Center
10:18AM 33.8681 -95.2131 54° Northeast 532 612 41,000  Level Fort Worth Center
10:19AM 33.9550 -95.0694 54° Northeast 531 611 41,000  Level Fort Worth Center
10:20AM 34.0433 -94.9231 54° Northeast 537 618 41,000  Level Fort Worth Center
10:21AM 34.1311 -94.7761 54° Northeast 540 621 41,000  Level Fort Worth Center
10:23AM 34.2700 -94.5431 54° Northeast 534 615 41,000  Level Memphis Center
10:23AM 34.3050 -94.4844 54° Northeast 533 613 41,000  Level Fort Worth Center
10:24AM 34.4106 -94.3056 54° Northeast 541 623 41,000  Level Fort Worth Center
10:25AM 34.4964 -94.1594 54° Northeast 536 617 41,000  Level Fort Worth Center
10:26AM 34.5308 -94.0986 55° Northeast 536 617 41,000  Level Memphis Center
10:27AM 34.6175 -93.9525 54° Northeast 534 615 41,000  Level Memphis Center
10:28AM 34.7036 -93.8039 55° Northeast 536 617 41,000  Level Memphis Center
10:29AM 34.8075 -93.6250 55° Northeast 539 620 41,000  Level Memphis Center
10:30AM 34.8944 -93.4756 55° Northeast 540 621 41,000  Level Memphis Center
10:31AM 34.9806 -93.3256 55° Northeast 541 623 41,000  Level Memphis Center
10:32AM 35.0661 -93.1756 55° Northeast 538 619 41,000  Level Memphis Center
10:33AM 35.1525 -93.0258 55° Northeast 539 620 41,000  Level Memphis Center
10:34AM 35.2369 -92.8756 55° Northeast 537 618 41,000  Level Memphis Center
10:35AM 35.3389 -92.6950 55° Northeast 538 619 41,000  Level Memphis Center
10:36AM 35.4147 -92.5611 55° Northeast 536 617 41,000  Level Memphis Center
10:37AM 35.4978 -92.4103 56° Northeast 534 615 41,000  Level Memphis Center
10:38AM 35.5908 -92.2458 55° Northeast 534 615 41,000  Level Memphis Center
10:39AM 35.6833 -92.0778 56° Northeast 534 615 41,000  Level Memphis Center
10:40AM 35.7750 -91.9128 56° Northeast 538 619 41,000  Level Memphis Center
10:41AM 35.8589 -91.7594 56° Northeast 536 617 41,000  Level Memphis Center
10:42AM 35.9456 -91.6036 55° Northeast 541 623 41,000  Level Memphis Center
10:43AM 36.0267 -91.4517 57° Northeast 535 616 41,000  Level Memphis Center
10:44AM 36.1111 -91.2994 55° Northeast 535 616 41,000  Level Memphis Center
10:45AM 36.1928 -91.1469 56° Northeast 532 612 41,000  Level Memphis Center
10:46AM 36.2750 -90.9933 56° Northeast 533 613 41,000  Level Memphis Center
10:47AM 36.3744 -90.8092 56° Northeast 535 616 41,000  Level Memphis Center
10:48AM 36.4569 -90.6542 56° Northeast 536 617 41,000  Level Memphis Center
10:50AM 36.5389 -90.4989 57° Northeast 535 616 41,000  Level Memphis Center
10:51AM 36.6217 -90.3431 56° Northeast 536 617 41,000  Level Memphis Center
10:52AM 36.7033 -90.1881 57° Northeast 535 616 41,000  Level Memphis Center
10:53AM 36.7842 -90.0322 57° Northeast 532 612 41,000  Level Memphis Center
10:54AM 36.8650 -89.8767 57° Northeast 531 611 41,000  Level Memphis Center
10:55AM 36.9456 -89.7225 57° Northeast 529 609 41,000  Level Memphis Center
10:56AM 37.0422 -89.5364 57° Northeast 527 606 41,000  Level Memphis Center
10:57AM 37.1219 -89.3803 57° Northeast 528 608 41,000  Level Memphis Center
10:58AM 37.2019 -89.2239 57° Northeast 530 610 41,000 -540 Level Memphis Center
10:59AM 37.2811 -89.0681 57° Northeast 528 608 39,900 -1,080 Descending Memphis Center
11:00AM 37.3569 -88.9178 58° Northeast 517 595 38,800 -1,200 Descending Memphis Center
11:01AM 37.4442 -88.7431 58° Northeast 497 572 37,500 -1,200 Descending Memphis Center
11:02AM 37.5178 -88.5986 57° Northeast 490 564 36,400 -1,080 Descending Memphis Center
11:03AM 37.5911 -88.4525 58° Northeast 491 565 35,300 -1,260 Descending Memphis Center
11:04AM 37.6375 -88.3575 58° Northeast 494 568 34,300 -1,380 Descending Indianapolis Center
11:05AM 37.7206 -88.1892 58° Northeast 508 585 33,000 -660 Descending Indianapolis Center
11:06AM 37.7881 -88.0519 58° Northeast 511 588 33,000 -60 Level Indianapolis Center
11:07AM 37.8636 -87.8981 58° Northeast 511 588 32,900  Descending Indianapolis Center
11:08AM 37.9500 -87.7589 52° Northeast 502 578 33,000  Climbing Indianapolis Center
11:09AM 38.0644 -87.6669 32° Northeast 482 555 32,900 -60 Descending Indianapolis Center
11:10AM 38.2064 -87.5658 29° Northeast 482 555 32,900 -420 Level Indianapolis Center
11:11AM 38.3264 -87.4781 30° Northeast 488 562 32,100 -2,040 Descending Indianapolis Center
11:12AM 38.4472 -87.3900 30° Northeast 491 565 28,800 -3,060 Descending Indianapolis Center
11:13AM 38.5639 -87.3044 30° Northeast 477 549 25,800 -2,940 Descending Indianapolis Center
11:14AM 38.6822 -87.2172 30° Northeast 482 555 22,800 -2,880 Descending Indianapolis Center
11:15AM 38.7989 -87.1300 30° Northeast 481 554 19,900 -2,760 Descending Indianapolis Center
11:16AM 38.9111 -87.0469 30° Northeast 469 540 17,100 -2,400 Descending Indianapolis Center
11:17AM 39.0161 -86.9697 30° Northeast 442 509 15,000 -1,680 Descending Indianapolis Center
11:18AM 39.1108 -86.9006 30° Northeast 404 465 13,700 -1,560 Descending Indianapolis Center
11:19AM 39.2028 -86.8322 30° Northeast 378 435 11,900 -1,320 Descending Indianapolis Center
11:20AM 39.2850 -86.7686 31° Northeast 353 406 11,000 -480 Descending Indianapolis Center
11:21AM 39.3703 -86.7050 30° Northeast 353 406 11,000 -480 Level Indianapolis Center
11:22AM 39.4625 -86.6075 39° Northeast 353 406 10,100 -1,140 Descending Indianapolis Center
11:23AM 39.5164 -86.5175 52° Northeast 332 382 8,700 -1,500 Descending Indianapolis Center
11:24AM 39.5661 -86.4303 53° Northeast 311 358 7,000 -840 Descending Indianapolis Center
11:25AM 39.6083 -86.3519 55° Northeast 278 320 7,100  Climbing Indianapolis Center
11:26AM 39.6414 -86.2700 62° Northeast 265 305 7,100 -540 Level Indianapolis Center
11:27AM 39.6858 -86.1761 58° Northeast 261 300 6,100 -1,020 Descending Indianapolis Center
11:28AM 39.7292 -86.1022 53° Northeast 264 304 5,100 -1,020 Descending Indianapolis Center
11:29AM 39.7806 -86.0422 42° Northeast 254 292 4,100 -540 Descending Indianapolis Center
11:30AM 39.8358 -85.9972 32° Northeast 255 293 4,000 -240 Descending Indianapolis Center
11:31AM 39.8742 -86.0456 316° Northwest 223 257 3,700 -540 Descending Indianapolis Center
11:32AM 39.8514 -86.1142 247° West 190 219 3,000 -360 Descending Indianapolis Center
11:34AM 39.8186 -86.1536 223° Southwest 170 196 3,000  Level Indianapolis Center
11:35AM 39.7886 -86.1919 224° Southwest 161 185 3,000 -420 Level Indianapolis Center
11:36AM 39.7661 -86.2208 225° Southwest 136 157 2,200 -720 Descending Indianapolis Center
11:37AM 39.7425 -86.2503 224° Southwest 122 140 1,600 -660 Descending Indianapolis Center
11:38AM 39.7131 -86.2875 224° Southwest 124 143 900 -720 Descending Indianapolis Center